sensor_id;sensor_type;location;lat;lon;timestamp;P1;durP1;ratioP1;P2;durP2;ratioP2
45318;SDS011;31057;48.498;32.260;2023-11-22T00:00:34;27.63;;;18.85;;
45318;SDS011;31057;48.498;32.260;2023-11-22T00:02:36;27.40;;;18.25;;
45318;SDS011;31057;48.498;32.260;2023-11-22T00:04:38;29.08;;;17.80;;
45318;SDS011;31057;48.498;32.260;2023-11-22T00:06:41;26.88;;;17.65;;
45318;SDS011;31057;48.498;32.260;2023-11-22T00:10:44;31.30;;;19.48;;
45318;SDS011;31057;48.498;32.260;2023-11-22T00:14:48;28.75;;;19.00;;
45318;SDS011;31057;48.498;32.260;2023-11-22T00:16:50;33.13;;;18.40;;
45318;SDS011;31057;48.498;32.260;2023-11-22T00:18:53;34.63;;;19.67;;
45318;SDS011;31057;48.498;32.260;2023-11-22T00:20:55;28.15;;;19.38;;
45318;SDS011;31057;48.498;32.260;2023-11-22T00:22:59;30.52;;;19.80;;
45318;SDS011;31057;48.498;32.260;2023-11-22T00:25:01;32.85;;;19.85;;
45318;SDS011;31057;48.498;32.260;2023-11-22T00:27:03;28.13;;;19.52;;
45318;SDS011;31057;48.498;32.260;2023-11-22T00:31:07;28.73;;;19.20;;
45318;SDS011;31057;48.498;32.260;2023-11-22T00:35:11;22.80;;;15.98;;
45318;SDS011;31057;48.498;32.260;2023-11-22T00:37:15;22.95;;;16.33;;
45318;SDS011;31057;48.498;32.260;2023-11-22T00:39:17;27.00;;;16.95;;
45318;SDS011;31057;48.498;32.260;2023-11-22T00:43:21;25.73;;;15.93;;
45318;SDS011;31057;48.498;32.260;2023-11-22T00:47:26;25.60;;;15.50;;
45318;SDS011;31057;48.498;32.260;2023-11-22T00:51:31;25.38;;;14.98;;
45318;SDS011;31057;48.498;32.260;2023-11-22T00:53:34;27.77;;;15.68;;
45318;SDS011;31057;48.498;32.260;2023-11-22T00:55:37;28.83;;;15.98;;
45318;SDS011;31057;48.498;32.260;2023-11-22T00:59:41;22.98;;;15.25;;
45318;SDS011;31057;48.498;32.260;2023-11-22T01:01:43;27.58;;;17.02;;
45318;SDS011;31057;48.498;32.260;2023-11-22T01:03:45;29.75;;;16.73;;
45318;SDS011;31057;48.498;32.260;2023-11-22T01:05:48;28.88;;;17.13;;
45318;SDS011;31057;48.498;32.260;2023-11-22T01:09:52;32.22;;;17.23;;
45318;SDS011;31057;48.498;32.260;2023-11-22T01:11:54;29.67;;;17.15;;
45318;SDS011;31057;48.498;32.260;2023-11-22T01:15:58;30.10;;;19.30;;
45318;SDS011;31057;48.498;32.260;2023-11-22T01:20:02;26.60;;;16.65;;
45318;SDS011;31057;48.498;32.260;2023-11-22T01:22:05;32.90;;;18.88;;
45318;SDS011;31057;48.498;32.260;2023-11-22T01:24:07;26.88;;;17.95;;
45318;SDS011;31057;48.498;32.260;2023-11-22T01:26:09;36.35;;;20.33;;
45318;SDS011;31057;48.498;32.260;2023-11-22T01:30:13;26.95;;;18.02;;
45318;SDS011;31057;48.498;32.260;2023-11-22T01:32:16;32.25;;;19.50;;
45318;SDS011;31057;48.498;32.260;2023-11-22T01:34:18;31.23;;;20.35;;
45318;SDS011;31057;48.498;32.260;2023-11-22T01:36:20;34.60;;;21.05;;
45318;SDS011;31057;48.498;32.260;2023-11-22T01:42:27;31.10;;;18.67;;
45318;SDS011;31057;48.498;32.260;2023-11-22T01:44:29;30.83;;;20.30;;
45318;SDS011;31057;48.498;32.260;2023-11-22T01:48:35;33.45;;;19.40;;
45318;SDS011;31057;48.498;32.260;2023-11-22T01:50:41;32.70;;;19.67;;
45318;SDS011;31057;48.498;32.260;2023-11-22T01:52:44;33.20;;;19.50;;
45318;SDS011;31057;48.498;32.260;2023-11-22T01:54:47;32.20;;;20.67;;
45318;SDS011;31057;48.498;32.260;2023-11-22T01:56:49;37.45;;;21.33;;
45318;SDS011;31057;48.498;32.260;2023-11-22T01:58:52;36.70;;;21.98;;
45318;SDS011;31057;48.498;32.260;2023-11-22T02:00:56;34.55;;;20.58;;
45318;SDS011;31057;48.498;32.260;2023-11-22T02:03:00;33.47;;;20.27;;
45318;SDS011;31057;48.498;32.260;2023-11-22T02:05:03;42.45;;;22.58;;
45318;SDS011;31057;48.498;32.260;2023-11-22T02:07:06;34.28;;;20.58;;
45318;SDS011;31057;48.498;32.260;2023-11-22T02:11:18;33.17;;;19.33;;
45318;SDS011;31057;48.498;32.260;2023-11-22T02:13:24;42.10;;;22.42;;
45318;SDS011;31057;48.498;32.260;2023-11-22T02:15:25;33.53;;;21.67;;
45318;SDS011;31057;48.498;32.260;2023-11-22T02:17:29;34.25;;;22.42;;
45318;SDS011;31057;48.498;32.260;2023-11-22T02:19:31;33.67;;;20.70;;
45318;SDS011;31057;48.498;32.260;2023-11-22T02:21:34;37.33;;;21.92;;
45318;SDS011;31057;48.498;32.260;2023-11-22T02:25:38;35.13;;;20.02;;
45318;SDS011;31057;48.498;32.260;2023-11-22T02:27:40;35.10;;;20.50;;
45318;SDS011;31057;48.498;32.260;2023-11-22T02:29:43;34.97;;;21.17;;
45318;SDS011;31057;48.498;32.260;2023-11-22T02:33:47;35.83;;;21.80;;
45318;SDS011;31057;48.498;32.260;2023-11-22T02:35:49;32.85;;;22.25;;
45318;SDS011;31057;48.498;32.260;2023-11-22T02:40:02;39.88;;;22.80;;
45318;SDS011;31057;48.498;32.260;2023-11-22T02:42:08;40.20;;;22.75;;
45318;SDS011;31057;48.498;32.260;2023-11-22T02:46:12;36.83;;;22.42;;
45318;SDS011;31057;48.498;32.260;2023-11-22T02:48:15;37.22;;;21.85;;
45318;SDS011;31057;48.498;32.260;2023-11-22T02:50:17;40.95;;;24.10;;
45318;SDS011;31057;48.498;32.260;2023-11-22T02:52:19;46.65;;;25.58;;
45318;SDS011;31057;48.498;32.260;2023-11-22T02:54:21;46.63;;;25.52;;
45318;SDS011;31057;48.498;32.260;2023-11-22T02:56:23;41.75;;;25.15;;
45318;SDS011;31057;48.498;32.260;2023-11-22T02:58:29;46.60;;;26.73;;
45318;SDS011;31057;48.498;32.260;2023-11-22T03:00:32;42.67;;;24.85;;
45318;SDS011;31057;48.498;32.260;2023-11-22T03:02:36;48.50;;;25.02;;
45318;SDS011;31057;48.498;32.260;2023-11-22T03:04:38;45.28;;;26.77;;
45318;SDS011;31057;48.498;32.260;2023-11-22T03:08:42;49.58;;;29.02;;
45318;SDS011;31057;48.498;32.260;2023-11-22T03:10:45;44.63;;;26.85;;
45318;SDS011;31057;48.498;32.260;2023-11-22T03:14:49;55.20;;;28.63;;
45318;SDS011;31057;48.498;32.260;2023-11-22T03:18:53;51.45;;;28.50;;
45318;SDS011;31057;48.498;32.260;2023-11-22T03:20:56;50.22;;;28.33;;
45318;SDS011;31057;48.498;32.260;2023-11-22T03:22:58;51.13;;;29.77;;
45318;SDS011;31057;48.498;32.260;2023-11-22T03:25:01;52.35;;;30.88;;
45318;SDS011;31057;48.498;32.260;2023-11-22T03:27:04;54.90;;;31.65;;
45318;SDS011;31057;48.498;32.260;2023-11-22T03:29:07;55.60;;;30.55;;
45318;SDS011;31057;48.498;32.260;2023-11-22T03:33:11;58.83;;;30.10;;
45318;SDS011;31057;48.498;32.260;2023-11-22T03:37:15;50.30;;;29.95;;
45318;SDS011;31057;48.498;32.260;2023-11-22T03:41:19;55.40;;;31.20;;
45318;SDS011;31057;48.498;32.260;2023-11-22T03:43:22;53.25;;;31.88;;
45318;SDS011;31057;48.498;32.260;2023-11-22T03:45:24;60.03;;;33.38;;
45318;SDS011;31057;48.498;32.260;2023-11-22T03:47:26;50.28;;;31.70;;
45318;SDS011;31057;48.498;32.260;2023-11-22T03:49:28;54.13;;;32.53;;
45318;SDS011;31057;48.498;32.260;2023-11-22T03:51:30;58.92;;;32.00;;
45318;SDS011;31057;48.498;32.260;2023-11-22T03:53:32;52.58;;;31.00;;
45318;SDS011;31057;48.498;32.260;2023-11-22T03:57:36;53.75;;;31.58;;
45318;SDS011;31057;48.498;32.260;2023-11-22T03:59:40;60.58;;;31.60;;
45318;SDS011;31057;48.498;32.260;2023-11-22T04:01:42;60.35;;;32.58;;
45318;SDS011;31057;48.498;32.260;2023-11-22T04:05:46;66.95;;;33.33;;
45318;SDS011;31057;48.498;32.260;2023-11-22T04:07:48;69.75;;;35.20;;
45318;SDS011;31057;48.498;32.260;2023-11-22T04:09:50;86.50;;;38.90;;
45318;SDS011;31057;48.498;32.260;2023-11-22T04:11:52;82.35;;;38.55;;
45318;SDS011;31057;48.498;32.260;2023-11-22T04:15:57;68.80;;;33.15;;
45318;SDS011;31057;48.498;32.260;2023-11-22T04:18:00;73.50;;;35.50;;
45318;SDS011;31057;48.498;32.260;2023-11-22T04:20:04;59.67;;;31.73;;
45318;SDS011;31057;48.498;32.260;2023-11-22T04:22:11;57.58;;;31.85;;
45318;SDS011;31057;48.498;32.260;2023-11-22T04:24:13;56.28;;;32.90;;
45318;SDS011;31057;48.498;32.260;2023-11-22T04:26:16;55.70;;;30.35;;
45318;SDS011;31057;48.498;32.260;2023-11-22T04:28:21;61.70;;;32.58;;
45318;SDS011;31057;48.498;32.260;2023-11-22T04:30:23;51.90;;;29.67;;
45318;SDS011;31057;48.498;32.260;2023-11-22T04:34:27;57.45;;;28.73;;
45318;SDS011;31057;48.498;32.260;2023-11-22T04:38:32;43.60;;;26.67;;
45318;SDS011;31057;48.498;32.260;2023-11-22T04:40:35;42.00;;;26.70;;
45318;SDS011;31057;48.498;32.260;2023-11-22T04:42:38;50.13;;;27.73;;
45318;SDS011;31057;48.498;32.260;2023-11-22T04:44:40;50.42;;;29.67;;
45318;SDS011;31057;48.498;32.260;2023-11-22T04:48:44;53.63;;;29.73;;
45318;SDS011;31057;48.498;32.260;2023-11-22T04:50:48;51.08;;;28.27;;
45318;SDS011;31057;48.498;32.260;2023-11-22T04:54:52;44.50;;;26.52;;
45318;SDS011;31057;48.498;32.260;2023-11-22T04:56:54;43.47;;;27.02;;
45318;SDS011;31057;48.498;32.260;2023-11-22T04:58:57;49.80;;;27.48;;
45318;SDS011;31057;48.498;32.260;2023-11-22T05:00:59;48.75;;;27.13;;
45318;SDS011;31057;48.498;32.260;2023-11-22T05:03:03;44.97;;;26.88;;
45318;SDS011;31057;48.498;32.260;2023-11-22T05:07:08;50.85;;;28.50;;
45318;SDS011;31057;48.498;32.260;2023-11-22T05:09:10;45.55;;;27.98;;
45318;SDS011;31057;48.498;32.260;2023-11-22T05:11:14;45.80;;;28.27;;
45318;SDS011;31057;48.498;32.260;2023-11-22T05:13:19;46.97;;;28.33;;
45318;SDS011;31057;48.498;32.260;2023-11-22T05:17:23;49.13;;;26.30;;
45318;SDS011;31057;48.498;32.260;2023-11-22T05:21:27;44.47;;;27.35;;
45318;SDS011;31057;48.498;32.260;2023-11-22T05:23:29;46.13;;;26.65;;
45318;SDS011;31057;48.498;32.260;2023-11-22T05:25:33;46.80;;;26.83;;
45318;SDS011;31057;48.498;32.260;2023-11-22T05:29:37;46.17;;;26.40;;
45318;SDS011;31057;48.498;32.260;2023-11-22T05:31:50;49.05;;;27.88;;
45318;SDS011;31057;48.498;32.260;2023-11-22T05:33:54;45.95;;;27.17;;
45318;SDS011;31057;48.498;32.260;2023-11-22T05:35:56;48.90;;;29.15;;
45318;SDS011;31057;48.498;32.260;2023-11-22T05:37:57;47.45;;;26.20;;
45318;SDS011;31057;48.498;32.260;2023-11-22T05:42:01;49.45;;;29.33;;
45318;SDS011;31057;48.498;32.260;2023-11-22T05:44:04;45.78;;;28.60;;
45318;SDS011;31057;48.498;32.260;2023-11-22T05:46:07;44.75;;;28.60;;
45318;SDS011;31057;48.498;32.260;2023-11-22T05:48:10;46.05;;;28.52;;
45318;SDS011;31057;48.498;32.260;2023-11-22T05:52:14;48.72;;;28.90;;
45318;SDS011;31057;48.498;32.260;2023-11-22T05:54:16;49.88;;;28.42;;
45318;SDS011;31057;48.498;32.260;2023-11-22T05:58:22;52.85;;;27.60;;
45318;SDS011;31057;48.498;32.260;2023-11-22T06:00:24;49.40;;;27.92;;
45318;SDS011;31057;48.498;32.260;2023-11-22T06:02:27;54.25;;;32.63;;
45318;SDS011;31057;48.498;32.260;2023-11-22T06:06:32;48.35;;;28.98;;
45318;SDS011;31057;48.498;32.260;2023-11-22T06:08:34;47.45;;;28.40;;
45318;SDS011;31057;48.498;32.260;2023-11-22T06:10:37;52.75;;;30.05;;
45318;SDS011;31057;48.498;32.260;2023-11-22T06:12:43;48.28;;;26.65;;
45318;SDS011;31057;48.498;32.260;2023-11-22T06:14:45;49.58;;;28.55;;
45318;SDS011;31057;48.498;32.260;2023-11-22T06:16:48;43.40;;;27.00;;
45318;SDS011;31057;48.498;32.260;2023-11-22T06:20:51;53.35;;;27.63;;
45318;SDS011;31057;48.498;32.260;2023-11-22T06:22:53;42.95;;;25.67;;
45318;SDS011;31057;48.498;32.260;2023-11-22T06:24:55;44.17;;;26.70;;
45318;SDS011;31057;48.498;32.260;2023-11-22T06:28:59;46.30;;;26.45;;
45318;SDS011;31057;48.498;32.260;2023-11-22T06:31:01;39.83;;;25.30;;
45318;SDS011;31057;48.498;32.260;2023-11-22T06:33:04;39.78;;;25.38;;
45318;SDS011;31057;48.498;32.260;2023-11-22T06:37:10;38.03;;;22.42;;
45318;SDS011;31057;48.498;32.260;2023-11-22T06:39:12;40.45;;;22.33;;
45318;SDS011;31057;48.498;32.260;2023-11-22T06:41:15;42.10;;;22.52;;
45318;SDS011;31057;48.498;32.260;2023-11-22T06:43:18;36.63;;;23.65;;
45318;SDS011;31057;48.498;32.260;2023-11-22T06:47:22;42.25;;;24.27;;
45318;SDS011;31057;48.498;32.260;2023-11-22T06:51:26;39.60;;;23.50;;
45318;SDS011;31057;48.498;32.260;2023-11-22T06:55:30;31.88;;;18.95;;
45318;SDS011;31057;48.498;32.260;2023-11-22T06:57:37;36.03;;;19.63;;
45318;SDS011;31057;48.498;32.260;2023-11-22T06:59:39;30.48;;;17.77;;
45318;SDS011;31057;48.498;32.260;2023-11-22T07:03:43;25.52;;;15.00;;
45318;SDS011;31057;48.498;32.260;2023-11-22T07:05:45;23.65;;;15.15;;
45318;SDS011;31057;48.498;32.260;2023-11-22T07:09:51;24.60;;;14.93;;
45318;SDS011;31057;48.498;32.260;2023-11-22T07:11:53;24.70;;;14.88;;
45318;SDS011;31057;48.498;32.260;2023-11-22T07:13:55;26.42;;;16.35;;
45318;SDS011;31057;48.498;32.260;2023-11-22T07:15:58;22.38;;;14.52;;
45318;SDS011;31057;48.498;32.260;2023-11-22T07:18:01;22.80;;;14.52;;
45318;SDS011;31057;48.498;32.260;2023-11-22T07:22:10;22.08;;;12.25;;
45318;SDS011;31057;48.498;32.260;2023-11-22T07:24:17;23.33;;;13.73;;
45318;SDS011;31057;48.498;32.260;2023-11-22T07:28:22;23.15;;;13.65;;
45318;SDS011;31057;48.498;32.260;2023-11-22T07:32:28;25.17;;;15.45;;
45318;SDS011;31057;48.498;32.260;2023-11-22T07:34:31;22.33;;;14.07;;
45318;SDS011;31057;48.498;32.260;2023-11-22T07:36:33;24.90;;;15.15;;
45318;SDS011;31057;48.498;32.260;2023-11-22T07:38:36;23.23;;;14.95;;
45318;SDS011;31057;48.498;32.260;2023-11-22T07:40:39;26.02;;;14.57;;
45318;SDS011;31057;48.498;32.260;2023-11-22T07:42:45;23.27;;;14.95;;
45318;SDS011;31057;48.498;32.260;2023-11-22T07:46:49;19.75;;;12.43;;
45318;SDS011;31057;48.498;32.260;2023-11-22T07:48:53;20.10;;;12.02;;
45318;SDS011;31057;48.498;32.260;2023-11-22T07:50:54;21.63;;;13.18;;
45318;SDS011;31057;48.498;32.260;2023-11-22T07:52:57;21.08;;;13.60;;
45318;SDS011;31057;48.498;32.260;2023-11-22T07:57:01;21.83;;;13.82;;
45318;SDS011;31057;48.498;32.260;2023-11-22T08:01:06;22.67;;;13.52;;
45318;SDS011;31057;48.498;32.260;2023-11-22T08:03:14;18.50;;;12.55;;
45318;SDS011;31057;48.498;32.260;2023-11-22T08:05:20;19.75;;;13.60;;
45318;SDS011;31057;48.498;32.260;2023-11-22T08:07:25;20.52;;;13.07;;
45318;SDS011;31057;48.498;32.260;2023-11-22T08:09:28;20.08;;;12.93;;
45318;SDS011;31057;48.498;32.260;2023-11-22T08:11:34;19.25;;;12.93;;
45318;SDS011;31057;48.498;32.260;2023-11-22T08:13:37;22.23;;;13.65;;
45318;SDS011;31057;48.498;32.260;2023-11-22T08:15:39;21.65;;;13.60;;
45318;SDS011;31057;48.498;32.260;2023-11-22T08:17:41;19.65;;;13.20;;
45318;SDS011;31057;48.498;32.260;2023-11-22T08:19:47;18.35;;;11.88;;
45318;SDS011;31057;48.498;32.260;2023-11-22T08:21:49;19.05;;;11.38;;
45318;SDS011;31057;48.498;32.260;2023-11-22T08:23:51;19.63;;;12.90;;
45318;SDS011;31057;48.498;32.260;2023-11-22T08:25:54;20.60;;;12.20;;
45318;SDS011;31057;48.498;32.260;2023-11-22T08:27:58;18.45;;;12.57;;
45318;SDS011;31057;48.498;32.260;2023-11-22T08:32:06;26.65;;;12.57;;
45318;SDS011;31057;48.498;32.260;2023-11-22T08:36:13;22.13;;;11.95;;
45318;SDS011;31057;48.498;32.260;2023-11-22T08:40:18;19.08;;;11.43;;
45318;SDS011;31057;48.498;32.260;2023-11-22T08:42:23;21.77;;;11.52;;
45318;SDS011;31057;48.498;32.260;2023-11-22T08:46:27;17.63;;;11.45;;
45318;SDS011;31057;48.498;32.260;2023-11-22T08:48:29;19.08;;;11.63;;
45318;SDS011;31057;48.498;32.260;2023-11-22T08:50:31;18.40;;;11.60;;
45318;SDS011;31057;48.498;32.260;2023-11-22T08:52:34;24.02;;;12.40;;
45318;SDS011;31057;48.498;32.260;2023-11-22T08:54:37;21.42;;;13.43;;
45318;SDS011;31057;48.498;32.260;2023-11-22T08:56:39;22.98;;;13.52;;
45318;SDS011;31057;48.498;32.260;2023-11-22T08:58:43;29.35;;;16.10;;
45318;SDS011;31057;48.498;32.260;2023-11-22T09:00:45;25.13;;;15.43;;
45318;SDS011;31057;48.498;32.260;2023-11-22T09:04:50;20.67;;;13.05;;
45318;SDS011;31057;48.498;32.260;2023-11-22T09:06:51;24.45;;;14.98;;
45318;SDS011;31057;48.498;32.260;2023-11-22T09:08:59;22.77;;;14.43;;
45318;SDS011;31057;48.498;32.260;2023-11-22T09:11:01;19.88;;;14.38;;
45318;SDS011;31057;48.498;32.260;2023-11-22T09:13:10;21.20;;;15.00;;
45318;SDS011;31057;48.498;32.260;2023-11-22T09:15:13;19.83;;;12.90;;
45318;SDS011;31057;48.498;32.260;2023-11-22T09:17:19;17.77;;;11.63;;
45318;SDS011;31057;48.498;32.260;2023-11-22T09:19:22;19.60;;;13.27;;
45318;SDS011;31057;48.498;32.260;2023-11-22T09:21:24;22.17;;;12.98;;
45318;SDS011;31057;48.498;32.260;2023-11-22T09:23:27;21.25;;;14.35;;
45318;SDS011;31057;48.498;32.260;2023-11-22T09:25:29;24.20;;;13.27;;
45318;SDS011;31057;48.498;32.260;2023-11-22T09:27:32;20.67;;;12.48;;
45318;SDS011;31057;48.498;32.260;2023-11-22T09:29:34;19.55;;;11.90;;
45318;SDS011;31057;48.498;32.260;2023-11-22T09:33:37;17.00;;;11.32;;
45318;SDS011;31057;48.498;32.260;2023-11-22T09:37:45;18.17;;;11.18;;
45318;SDS011;31057;48.498;32.260;2023-11-22T09:39:47;19.02;;;12.05;;
45318;SDS011;31057;48.498;32.260;2023-11-22T09:41:49;23.00;;;13.00;;
45318;SDS011;31057;48.498;32.260;2023-11-22T09:43:53;20.98;;;13.63;;
45318;SDS011;31057;48.498;32.260;2023-11-22T09:45:55;24.20;;;15.10;;
45318;SDS011;31057;48.498;32.260;2023-11-22T09:48:00;18.73;;;11.85;;
45318;SDS011;31057;48.498;32.260;2023-11-22T09:50:04;16.80;;;11.23;;
45318;SDS011;31057;48.498;32.260;2023-11-22T09:52:11;24.75;;;13.57;;
45318;SDS011;31057;48.498;32.260;2023-11-22T09:54:17;23.95;;;14.55;;
45318;SDS011;31057;48.498;32.260;2023-11-22T09:56:22;18.40;;;12.57;;
45318;SDS011;31057;48.498;32.260;2023-11-22T09:58:25;20.02;;;13.30;;
45318;SDS011;31057;48.498;32.260;2023-11-22T10:00:31;17.38;;;12.10;;
45318;SDS011;31057;48.498;32.260;2023-11-22T10:02:33;22.40;;;14.63;;
45318;SDS011;31057;48.498;32.260;2023-11-22T10:04:36;19.65;;;13.80;;
45318;SDS011;31057;48.498;32.260;2023-11-22T10:06:39;20.45;;;12.52;;
45318;SDS011;31057;48.498;32.260;2023-11-22T10:08:42;17.58;;;12.40;;
45318;SDS011;31057;48.498;32.260;2023-11-22T10:10:44;18.10;;;11.77;;
45318;SDS011;31057;48.498;32.260;2023-11-22T10:12:49;16.27;;;12.73;;
45318;SDS011;31057;48.498;32.260;2023-11-22T10:14:51;16.90;;;12.25;;
45318;SDS011;31057;48.498;32.260;2023-11-22T10:16:57;20.20;;;12.68;;
45318;SDS011;31057;48.498;32.260;2023-11-22T10:19:03;20.17;;;13.07;;
45318;SDS011;31057;48.498;32.260;2023-11-22T10:21:21;21.30;;;13.43;;
45318;SDS011;31057;48.498;32.260;2023-11-22T10:23:26;20.75;;;14.10;;
45318;SDS011;31057;48.498;32.260;2023-11-22T10:25:30;21.50;;;13.68;;
45318;SDS011;31057;48.498;32.260;2023-11-22T10:27:33;19.63;;;12.82;;
45318;SDS011;31057;48.498;32.260;2023-11-22T10:29:37;23.60;;;14.48;;
45318;SDS011;31057;48.498;32.260;2023-11-22T10:31:39;23.13;;;14.23;;
45318;SDS011;31057;48.498;32.260;2023-11-22T10:33:42;26.70;;;16.02;;
45318;SDS011;31057;48.498;32.260;2023-11-22T10:39:52;21.58;;;13.73;;
45318;SDS011;31057;48.498;32.260;2023-11-22T10:41:54;22.98;;;15.25;;
45318;SDS011;31057;48.498;32.260;2023-11-22T10:43:57;22.67;;;14.35;;
45318;SDS011;31057;48.498;32.260;2023-11-22T10:46:03;21.02;;;14.82;;
45318;SDS011;31057;48.498;32.260;2023-11-22T10:48:10;28.75;;;17.08;;
45318;SDS011;31057;48.498;32.260;2023-11-22T10:50:17;27.33;;;16.00;;
45318;SDS011;31057;48.498;32.260;2023-11-22T10:52:20;25.77;;;15.65;;
45318;SDS011;31057;48.498;32.260;2023-11-22T10:54:28;22.25;;;14.55;;
45318;SDS011;31057;48.498;32.260;2023-11-22T10:56:40;24.13;;;15.13;;
45318;SDS011;31057;48.498;32.260;2023-11-22T10:58:47;24.45;;;15.23;;
45318;SDS011;31057;48.498;32.260;2023-11-22T11:00:50;21.58;;;14.27;;
45318;SDS011;31057;48.498;32.260;2023-11-22T11:02:59;30.42;;;14.77;;
45318;SDS011;31057;48.498;32.260;2023-11-22T11:05:07;23.20;;;14.13;;
45318;SDS011;31057;48.498;32.260;2023-11-22T11:07:19;23.92;;;15.98;;
45318;SDS011;31057;48.498;32.260;2023-11-22T11:09:24;23.02;;;14.70;;
45318;SDS011;31057;48.498;32.260;2023-11-22T11:11:33;23.55;;;16.08;;
45318;SDS011;31057;48.498;32.260;2023-11-22T11:13:36;24.67;;;15.38;;
45318;SDS011;31057;48.498;32.260;2023-11-22T11:15:40;22.20;;;14.20;;
45318;SDS011;31057;48.498;32.260;2023-11-22T11:17:48;22.95;;;15.10;;
45318;SDS011;31057;48.498;32.260;2023-11-22T11:19:51;17.92;;;12.70;;
45318;SDS011;31057;48.498;32.260;2023-11-22T11:21:54;23.30;;;14.63;;
45318;SDS011;31057;48.498;32.260;2023-11-22T11:24:01;22.48;;;15.35;;
45318;SDS011;31057;48.498;32.260;2023-11-22T11:26:18;21.02;;;14.05;;
45318;SDS011;31057;48.498;32.260;2023-11-22T11:28:23;19.20;;;12.55;;
45318;SDS011;31057;48.498;32.260;2023-11-22T11:32:51;23.55;;;14.57;;
45318;SDS011;31057;48.498;32.260;2023-11-22T11:36:58;35.10;;;18.38;;
45318;SDS011;31057;48.498;32.260;2023-11-22T11:39:02;27.45;;;17.13;;
45318;SDS011;31057;48.498;32.260;2023-11-22T11:41:15;23.17;;;14.65;;
45318;SDS011;31057;48.498;32.260;2023-11-22T11:45:23;28.60;;;16.77;;
45318;SDS011;31057;48.498;32.260;2023-11-22T11:47:25;29.40;;;18.42;;
45318;SDS011;31057;48.498;32.260;2023-11-22T11:49:27;27.40;;;16.80;;
45318;SDS011;31057;48.498;32.260;2023-11-22T11:51:30;27.83;;;17.75;;
45318;SDS011;31057;48.498;32.260;2023-11-22T11:53:33;28.23;;;18.70;;
45318;SDS011;31057;48.498;32.260;2023-11-22T11:55:36;31.80;;;19.55;;
45318;SDS011;31057;48.498;32.260;2023-11-22T11:57:38;32.25;;;18.77;;
45318;SDS011;31057;48.498;32.260;2023-11-22T11:59:43;34.92;;;19.38;;
45318;SDS011;31057;48.498;32.260;2023-11-22T12:01:52;31.30;;;19.75;;
45318;SDS011;31057;48.498;32.260;2023-11-22T12:03:56;36.63;;;21.55;;
45318;SDS011;31057;48.498;32.260;2023-11-22T12:05:59;33.85;;;19.80;;
45318;SDS011;31057;48.498;32.260;2023-11-22T12:08:01;33.05;;;21.73;;
45318;SDS011;31057;48.498;32.260;2023-11-22T12:10:04;33.20;;;21.95;;
45318;SDS011;31057;48.498;32.260;2023-11-22T12:12:09;39.85;;;22.15;;
45318;SDS011;31057;48.498;32.260;2023-11-22T12:16:14;33.90;;;19.75;;
45318;SDS011;31057;48.498;32.260;2023-11-22T12:18:19;26.13;;;15.73;;
45318;SDS011;31057;48.498;32.260;2023-11-22T12:20:22;29.17;;;17.85;;
45318;SDS011;31057;48.498;32.260;2023-11-22T12:22:27;27.98;;;17.45;;
45318;SDS011;31057;48.498;32.260;2023-11-22T12:24:31;29.13;;;19.00;;
45318;SDS011;31057;48.498;32.260;2023-11-22T12:28:35;26.80;;;17.80;;
45318;SDS011;31057;48.498;32.260;2023-11-22T12:30:37;32.47;;;19.33;;
45318;SDS011;31057;48.498;32.260;2023-11-22T12:32:40;30.83;;;20.27;;
45318;SDS011;31057;48.498;32.260;2023-11-22T12:34:44;33.95;;;20.80;;
45318;SDS011;31057;48.498;32.260;2023-11-22T12:36:46;28.80;;;19.50;;
45318;SDS011;31057;48.498;32.260;2023-11-22T12:38:48;29.17;;;19.10;;
45318;SDS011;31057;48.498;32.260;2023-11-22T12:40:56;29.80;;;17.80;;
45318;SDS011;31057;48.498;32.260;2023-11-22T12:42:59;24.70;;;15.85;;
45318;SDS011;31057;48.498;32.260;2023-11-22T12:45:02;30.67;;;19.08;;
45318;SDS011;31057;48.498;32.260;2023-11-22T12:47:05;24.13;;;16.85;;
45318;SDS011;31057;48.498;32.260;2023-11-22T12:49:12;27.52;;;18.25;;
45318;SDS011;31057;48.498;32.260;2023-11-22T12:51:15;34.13;;;20.80;;
45318;SDS011;31057;48.498;32.260;2023-11-22T12:53:18;25.17;;;16.83;;
45318;SDS011;31057;48.498;32.260;2023-11-22T12:55:23;25.48;;;16.98;;
45318;SDS011;31057;48.498;32.260;2023-11-22T12:59:27;26.52;;;15.75;;
45318;SDS011;31057;48.498;32.260;2023-11-22T13:01:29;32.28;;;18.38;;
45318;SDS011;31057;48.498;32.260;2023-11-22T13:03:31;34.17;;;19.73;;
45318;SDS011;31057;48.498;32.260;2023-11-22T13:05:35;31.40;;;17.80;;
45318;SDS011;31057;48.498;32.260;2023-11-22T13:07:40;31.60;;;18.00;;
45318;SDS011;31057;48.498;32.260;2023-11-22T13:09:44;29.27;;;16.85;;
45318;SDS011;31057;48.498;32.260;2023-11-22T13:13:48;30.23;;;20.70;;
45318;SDS011;31057;48.498;32.260;2023-11-22T13:15:51;35.88;;;22.75;;
45318;SDS011;31057;48.498;32.260;2023-11-22T13:19:57;37.65;;;22.95;;
45318;SDS011;31057;48.498;32.260;2023-11-22T13:24:00;40.50;;;22.65;;
45318;SDS011;31057;48.498;32.260;2023-11-22T13:26:03;34.42;;;20.08;;
45318;SDS011;31057;48.498;32.260;2023-11-22T13:28:07;35.97;;;23.63;;
45318;SDS011;31057;48.498;32.260;2023-11-22T13:30:10;33.92;;;21.00;;
45318;SDS011;31057;48.498;32.260;2023-11-22T13:32:13;40.65;;;23.17;;
45318;SDS011;31057;48.498;32.260;2023-11-22T13:34:15;37.08;;;24.52;;
45318;SDS011;31057;48.498;32.260;2023-11-22T13:36:17;38.70;;;24.95;;
45318;SDS011;31057;48.498;32.260;2023-11-22T13:40:21;43.15;;;26.77;;
45318;SDS011;31057;48.498;32.260;2023-11-22T13:42:23;35.20;;;22.30;;
45318;SDS011;31057;48.498;32.260;2023-11-22T13:44:25;57.40;;;33.15;;
45318;SDS011;31057;48.498;32.260;2023-11-22T13:46:28;39.20;;;25.55;;
45318;SDS011;31057;48.498;32.260;2023-11-22T13:48:30;33.35;;;22.27;;
45318;SDS011;31057;48.498;32.260;2023-11-22T13:50:34;29.52;;;18.90;;
45318;SDS011;31057;48.498;32.260;2023-11-22T13:52:36;35.35;;;21.88;;
45318;SDS011;31057;48.498;32.260;2023-11-22T13:54:38;35.00;;;23.05;;
45318;SDS011;31057;48.498;32.260;2023-11-22T13:56:42;36.80;;;23.42;;
45318;SDS011;31057;48.498;32.260;2023-11-22T14:00:46;40.63;;;22.83;;
45318;SDS011;31057;48.498;32.260;2023-11-22T14:02:49;36.33;;;21.38;;
45318;SDS011;31057;48.498;32.260;2023-11-22T14:04:57;45.65;;;25.70;;
45318;SDS011;31057;48.498;32.260;2023-11-22T14:07:00;36.47;;;23.27;;
45318;SDS011;31057;48.498;32.260;2023-11-22T14:09:03;34.47;;;23.02;;
45318;SDS011;31057;48.498;32.260;2023-11-22T14:11:06;31.35;;;20.38;;
45318;SDS011;31057;48.498;32.260;2023-11-22T14:15:13;30.73;;;19.75;;
45318;SDS011;31057;48.498;32.260;2023-11-22T14:17:15;30.70;;;18.73;;
45318;SDS011;31057;48.498;32.260;2023-11-22T14:19:19;34.33;;;20.80;;
45318;SDS011;31057;48.498;32.260;2023-11-22T14:21:21;43.17;;;27.88;;
45318;SDS011;31057;48.498;32.260;2023-11-22T14:23:24;39.17;;;23.83;;
45318;SDS011;31057;48.498;32.260;2023-11-22T14:27:28;29.75;;;19.10;;